sensor_id;sensor_type;location;lat;lon;timestamp;temperature;humidity
64685;DHT22;51109;47.414;18.954;2022-12-29T00:02:20;0.90;99.90
64685;DHT22;51109;47.414;18.954;2022-12-29T00:04:45;0.80;99.90
64685;DHT22;51109;47.414;18.954;2022-12-29T00:07:11;0.80;99.90
64685;DHT22;51109;47.414;18.954;2022-12-29T00:09:37;0.80;99.90
64685;DHT22;51109;47.414;18.954;2022-12-29T00:12:04;0.80;99.90
64685;DHT22;51109;47.414;18.954;2022-12-29T00:14:30;0.80;99.90
64685;DHT22;51109;47.414;18.954;2022-12-29T00:17:15;0.80;99.90
64685;DHT22;51109;47.414;18.954;2022-12-29T00:19:41;0.80;99.90
64685;DHT22;51109;47.414;18.954;2022-12-29T00:22:26;0.70;99.90
64685;DHT22;51109;47.414;18.954;2022-12-29T00:25:12;0.70;99.90
64685;DHT22;51109;47.414;18.954;2022-12-29T00:27:57;0.80;99.90
64685;DHT22;51109;47.414;18.954;2022-12-29T00:30:42;0.80;99.90
64685;DHT22;51109;47.414;18.954;2022-12-29T00:33:29;0.80;99.90
64685;DHT22;51109;47.414;18.954;2022-12-29T00:38:53;0.80;99.90
64685;DHT22;51109;47.414;18.954;2022-12-29T00:41:39;0.80;99.90
64685;DHT22;51109;47.414;18.954;2022-12-29T00:44:23;0.80;99.90
64685;DHT22;51109;47.414;18.954;2022-12-29T00:46:49;0.80;99.90
64685;DHT22;51109;47.414;18.954;2022-12-29T00:49:15;0.80;99.90
64685;DHT22;51109;47.414;18.954;2022-12-29T00:52:22;0.80;99.90
64685;DHT22;51109;47.414;18.954;2022-12-29T00:54:48;0.80;99.90
64685;DHT22;51109;47.414;18.954;2022-12-29T00:57:14;0.80;99.90
64685;DHT22;51109;47.414;18.954;2022-12-29T00:59:41;0.60;99.90
64685;DHT22;51109;47.414;18.954;2022-12-29T01:02:08;0.60;99.90
64685;DHT22;51109;47.414;18.954;2022-12-29T01:04:35;0.70;99.90
64685;DHT22;51109;47.414;18.954;2022-12-29T01:07:01;0.70;99.90
64685;DHT22;51109;47.414;18.954;2022-12-29T01:09:27;0.60;99.90
64685;DHT22;51109;47.414;18.954;2022-12-29T01:12:11;0.60;99.90
64685;DHT22;51109;47.414;18.954;2022-12-29T01:14:37;0.60;99.90
64685;DHT22;51109;47.414;18.954;2022-12-29T01:17:04;0.60;99.90
64685;DHT22;51109;47.414;18.954;2022-12-29T01:19:30;0.70;99.90
64685;DHT22;51109;47.414;18.954;2022-12-29T01:21:56;0.60;99.90
64685;DHT22;51109;47.414;18.954;2022-12-29T01:24:22;0.60;99.90
64685;DHT22;51109;47.414;18.954;2022-12-29T01:26:48;0.50;99.90
64685;DHT22;51109;47.414;18.954;2022-12-29T01:29:14;0.50;99.90
64685;DHT22;51109;47.414;18.954;2022-12-29T01:31:40;0.60;99.90
64685;DHT22;51109;47.414;18.954;2022-12-29T01:34:06;0.60;99.90
64685;DHT22;51109;47.414;18.954;2022-12-29T01:36:33;0.50;99.90
64685;DHT22;51109;47.414;18.954;2022-12-29T01:38:59;0.60;99.90
64685;DHT22;51109;47.414;18.954;2022-12-29T01:41:25;0.60;99.90
64685;DHT22;51109;47.414;18.954;2022-12-29T01:43:53;0.60;99.90
64685;DHT22;51109;47.414;18.954;2022-12-29T01:46:38;0.50;99.90
64685;DHT22;51109;47.414;18.954;2022-12-29T01:49:12;0.50;99.90
64685;DHT22;51109;47.414;18.954;2022-12-29T01:54:30;0.20;99.90
64685;DHT22;51109;47.414;18.954;2022-12-29T01:57:01;0.20;99.90
64685;DHT22;51109;47.414;18.954;2022-12-29T01:59:35;0.10;99.90
64685;DHT22;51109;47.414;18.954;2022-12-29T02:02:02;0.20;99.90
64685;DHT22;51109;47.414;18.954;2022-12-29T02:04:32;0.10;99.90
64685;DHT22;51109;47.414;18.954;2022-12-29T02:07:04;0.10;99.90
64685;DHT22;51109;47.414;18.954;2022-12-29T02:09:30;0.20;99.90
64685;DHT22;51109;47.414;18.954;2022-12-29T02:11:58;0.20;99.90
64685;DHT22;51109;47.414;18.954;2022-12-29T02:14:24;0.20;99.90
64685;DHT22;51109;47.414;18.954;2022-12-29T02:39:43;0.30;99.90
64685;DHT22;51109;47.414;18.954;2022-12-29T02:47:47;0.20;99.90
64685;DHT22;51109;47.414;18.954;2022-12-29T02:50:20;0.20;99.90
64685;DHT22;51109;47.414;18.954;2022-12-29T02:52:52;0.20;99.90
64685;DHT22;51109;47.414;18.954;2022-12-29T02:55:20;0.20;99.90
64685;DHT22;51109;47.414;18.954;2022-12-29T02:57:46;0.20;99.90
64685;DHT22;51109;47.414;18.954;2022-12-29T03:00:16;0.10;99.90
64685;DHT22;51109;47.414;18.954;2022-12-29T03:03:18;0.10;99.90
64685;DHT22;51109;47.414;18.954;2022-12-29T03:11:01;0.10;99.90
64685;DHT22;51109;47.414;18.954;2022-12-29T03:13:43;0.10;99.90
64685;DHT22;51109;47.414;18.954;2022-12-29T03:16:44;0.10;99.90
64685;DHT22;51109;47.414;18.954;2022-12-29T03:19:48;0.10;99.90
64685;DHT22;51109;47.414;18.954;2022-12-29T03:22:10;0.00;99.90
64685;DHT22;51109;47.414;18.954;2022-12-29T03:24:56;-0.10;99.90
64685;DHT22;51109;47.414;18.954;2022-12-29T03:27:30;0.00;99.90
64685;DHT22;51109;47.414;18.954;2022-12-29T03:30:02;0.00;99.90
64685;DHT22;51109;47.414;18.954;2022-12-29T03:32:36;0.00;99.90
64685;DHT22;51109;47.414;18.954;2022-12-29T03:35:05;0.00;99.90
64685;DHT22;51109;47.414;18.954;2022-12-29T03:37:37;0.00;99.90
64685;DHT22;51109;47.414;18.954;2022-12-29T03:40:05;0.00;99.90
64685;DHT22;51109;47.414;18.954;2022-12-29T03:42:34;0.00;99.90
64685;DHT22;51109;47.414;18.954;2022-12-29T03:45:00;0.00;99.90
64685;DHT22;51109;47.414;18.954;2022-12-29T03:47:26;0.00;99.90
64685;DHT22;51109;47.414;18.954;2022-12-29T03:49:53;0.00;99.90
64685;DHT22;51109;47.414;18.954;2022-12-29T03:52:19;0.00;99.90
64685;DHT22;51109;47.414;18.954;2022-12-29T03:54:45;0.00;99.90
64685;DHT22;51109;47.414;18.954;2022-12-29T03:57:11;0.10;99.90
64685;DHT22;51109;47.414;18.954;2022-12-29T03:59:37;0.10;99.90
64685;DHT22;51109;47.414;18.954;2022-12-29T04:02:02;0.10;99.90
64685;DHT22;51109;47.414;18.954;2022-12-29T04:04:28;0.10;99.90
64685;DHT22;51109;47.414;18.954;2022-12-29T04:06:57;0.10;99.90
64685;DHT22;51109;47.414;18.954;2022-12-29T04:09:22;0.10;99.90
64685;DHT22;51109;47.414;18.954;2022-12-29T04:11:48;0.10;99.90
64685;DHT22;51109;47.414;18.954;2022-12-29T04:14:14;0.00;99.90
64685;DHT22;51109;47.414;18.954;2022-12-29T04:16:40;0.00;99.90
64685;DHT22;51109;47.414;18.954;2022-12-29T04:19:07;-0.10;99.90
64685;DHT22;51109;47.414;18.954;2022-12-29T04:21:33;-0.10;99.90
64685;DHT22;51109;47.414;18.954;2022-12-29T04:23:59;0.00;99.90
64685;DHT22;51109;47.414;18.954;2022-12-29T04:26:25;0.00;99.90
64685;DHT22;51109;47.414;18.954;2022-12-29T04:28:51;-0.10;99.90
64685;DHT22;51109;47.414;18.954;2022-12-29T04:31:17;0.00;99.90
64685;DHT22;51109;47.414;18.954;2022-12-29T04:33:43;0.00;99.90
64685;DHT22;51109;47.414;18.954;2022-12-29T04:36:09;0.00;99.90
64685;DHT22;51109;47.414;18.954;2022-12-29T04:38:35;0.10;99.90
64685;DHT22;51109;47.414;18.954;2022-12-29T04:41:01;0.10;99.90
64685;DHT22;51109;47.414;18.954;2022-12-29T04:43:27;0.20;99.90
64685;DHT22;51109;47.414;18.954;2022-12-29T04:45:54;0.20;99.90
64685;DHT22;51109;47.414;18.954;2022-12-29T04:48:20;0.20;99.90
64685;DHT22;51109;47.414;18.954;2022-12-29T04:50:47;0.20;99.90
64685;DHT22;51109;47.414;18.954;2022-12-29T04:53:14;0.20;99.90
64685;DHT22;51109;47.414;18.954;2022-12-29T04:55:40;0.20;99.90
64685;DHT22;51109;47.414;18.954;2022-12-29T04:58:06;0.20;99.90
64685;DHT22;51109;47.414;18.954;2022-12-29T05:00:32;0.20;99.90
64685;DHT22;51109;47.414;18.954;2022-12-29T05:02:58;0.20;99.90
64685;DHT22;51109;47.414;18.954;2022-12-29T05:05:24;0.30;99.90
64685;DHT22;51109;47.414;18.954;2022-12-29T05:07:50;0.20;99.90
64685;DHT22;51109;47.414;18.954;2022-12-29T05:10:17;0.20;99.90
64685;DHT22;51109;47.414;18.954;2022-12-29T05:12:43;0.20;99.90
64685;DHT22;51109;47.414;18.954;2022-12-29T05:15:10;0.20;99.90
64685;DHT22;51109;47.414;18.954;2022-12-29T05:17:36;0.20;99.90
64685;DHT22;51109;47.414;18.954;2022-12-29T05:20:04;0.20;99.90
64685;DHT22;51109;47.414;18.954;2022-12-29T05:22:30;0.20;99.90
64685;DHT22;51109;47.414;18.954;2022-12-29T05:24:56;0.30;99.90
64685;DHT22;51109;47.414;18.954;2022-12-29T05:27:21;0.30;99.90
64685;DHT22;51109;47.414;18.954;2022-12-29T05:29:47;0.30;99.90
64685;DHT22;51109;47.414;18.954;2022-12-29T05:32:13;0.20;99.90
64685;DHT22;51109;47.414;18.954;2022-12-29T05:34:39;0.20;99.90
64685;DHT22;51109;47.414;18.954;2022-12-29T05:37:05;0.20;99.90
64685;DHT22;51109;47.414;18.954;2022-12-29T05:39:31;0.20;99.90
64685;DHT22;51109;47.414;18.954;2022-12-29T05:41:57;0.20;99.90
64685;DHT22;51109;47.414;18.954;2022-12-29T05:44:23;0.20;99.90
64685;DHT22;51109;47.414;18.954;2022-12-29T05:46:52;0.10;99.90
64685;DHT22;51109;47.414;18.954;2022-12-29T05:49:18;0.10;99.90
64685;DHT22;51109;47.414;18.954;2022-12-29T05:51:44;0.00;99.90
64685;DHT22;51109;47.414;18.954;2022-12-29T05:54:10;0.00;99.90
64685;DHT22;51109;47.414;18.954;2022-12-29T05:56:35;-0.10;99.90
64685;DHT22;51109;47.414;18.954;2022-12-29T05:59:01;-0.10;99.90
64685;DHT22;51109;47.414;18.954;2022-12-29T06:01:27;-0.10;99.90
64685;DHT22;51109;47.414;18.954;2022-12-29T06:03:53;-0.10;99.90
64685;DHT22;51109;47.414;18.954;2022-12-29T06:06:19;0.00;99.90
64685;DHT22;51109;47.414;18.954;2022-12-29T06:08:45;0.00;99.90
64685;DHT22;51109;47.414;18.954;2022-12-29T06:11:11;0.10;99.90
64685;DHT22;51109;47.414;18.954;2022-12-29T06:13:37;0.10;99.90
64685;DHT22;51109;47.414;18.954;2022-12-29T06:16:03;0.10;99.90
64685;DHT22;51109;47.414;18.954;2022-12-29T06:18:29;0.20;99.90
64685;DHT22;51109;47.414;18.954;2022-12-29T06:21:00;0.10;99.90
64685;DHT22;51109;47.414;18.954;2022-12-29T06:23:26;0.10;99.90
64685;DHT22;51109;47.414;18.954;2022-12-29T06:25:52;0.10;99.90
64685;DHT22;51109;47.414;18.954;2022-12-29T06:28:18;0.10;99.90
64685;DHT22;51109;47.414;18.954;2022-12-29T06:30:45;0.00;99.90
64685;DHT22;51109;47.414;18.954;2022-12-29T06:33:11;0.00;99.90
64685;DHT22;51109;47.414;18.954;2022-12-29T06:35:37;0.00;99.90
64685;DHT22;51109;47.414;18.954;2022-12-29T06:38:03;-0.10;99.90
64685;DHT22;51109;47.414;18.954;2022-12-29T06:40:29;0.00;99.90
64685;DHT22;51109;47.414;18.954;2022-12-29T06:42:55;-0.10;99.90
64685;DHT22;51109;47.414;18.954;2022-12-29T06:45:21;0.00;99.90
64685;DHT22;51109;47.414;18.954;2022-12-29T06:47:47;0.00;99.90
64685;DHT22;51109;47.414;18.954;2022-12-29T06:50:13;0.00;99.90
64685;DHT22;51109;47.414;18.954;2022-12-29T06:52:38;0.10;99.90
64685;DHT22;51109;47.414;18.954;2022-12-29T06:55:04;0.10;99.90
64685;DHT22;51109;47.414;18.954;2022-12-29T06:57:30;0.10;99.90
64685;DHT22;51109;47.414;18.954;2022-12-29T06:59:56;0.10;99.90
64685;DHT22;51109;47.414;18.954;2022-12-29T07:02:23;0.10;99.90
64685;DHT22;51109;47.414;18.954;2022-12-29T07:04:53;0.20;99.90
64685;DHT22;51109;47.414;18.954;2022-12-29T07:07:20;0.10;99.90
64685;DHT22;51109;47.414;18.954;2022-12-29T07:09:46;0.20;99.90
64685;DHT22;51109;47.414;18.954;2022-12-29T07:12:12;0.20;99.90
64685;DHT22;51109;47.414;18.954;2022-12-29T07:14:38;0.30;99.90
64685;DHT22;51109;47.414;18.954;2022-12-29T07:17:05;0.30;99.90
64685;DHT22;51109;47.414;18.954;2022-12-29T07:19:32;0.40;99.90
64685;DHT22;51109;47.414;18.954;2022-12-29T07:21:58;0.40;99.90
64685;DHT22;51109;47.414;18.954;2022-12-29T07:24:25;0.40;99.90
64685;DHT22;51109;47.414;18.954;2022-12-29T07:26:53;0.50;99.90
64685;DHT22;51109;47.414;18.954;2022-12-29T07:29:19;0.60;99.90
64685;DHT22;51109;47.414;18.954;2022-12-29T07:31:45;0.60;99.90
64685;DHT22;51109;47.414;18.954;2022-12-29T07:34:11;0.70;99.90
64685;DHT22;51109;47.414;18.954;2022-12-29T07:36:37;0.80;99.90
64685;DHT22;51109;47.414;18.954;2022-12-29T07:39:03;0.80;99.90
64685;DHT22;51109;47.414;18.954;2022-12-29T07:41:29;0.90;99.90
64685;DHT22;51109;47.414;18.954;2022-12-29T07:43:55;1.00;99.90
64685;DHT22;51109;47.414;18.954;2022-12-29T07:46:21;1.00;99.90
64685;DHT22;51109;47.414;18.954;2022-12-29T07:48:47;1.10;99.90
64685;DHT22;51109;47.414;18.954;2022-12-29T07:51:13;1.10;99.90
64685;DHT22;51109;47.414;18.954;2022-12-29T07:53:39;1.20;99.90
64685;DHT22;51109;47.414;18.954;2022-12-29T07:56:05;1.20;99.90
64685;DHT22;51109;47.414;18.954;2022-12-29T07:58:32;1.30;99.90
64685;DHT22;51109;47.414;18.954;2022-12-29T08:00:58;1.40;99.90
64685;DHT22;51109;47.414;18.954;2022-12-29T08:03:24;1.40;99.90
64685;DHT22;51109;47.414;18.954;2022-12-29T08:05:51;1.50;99.90
64685;DHT22;51109;47.414;18.954;2022-12-29T08:08:17;1.60;99.90
64685;DHT22;51109;47.414;18.954;2022-12-29T08:10:43;1.60;99.90
64685;DHT22;51109;47.414;18.954;2022-12-29T08:13:09;1.60;99.90
64685;DHT22;51109;47.414;18.954;2022-12-29T08:15:37;1.60;99.90
64685;DHT22;51109;47.414;18.954;2022-12-29T08:18:03;1.50;99.90
64685;DHT22;51109;47.414;18.954;2022-12-29T08:20:29;1.50;99.90
64685;DHT22;51109;47.414;18.954;2022-12-29T08:22:54;1.50;99.90
64685;DHT22;51109;47.414;18.954;2022-12-29T08:25:22;1.50;99.90
64685;DHT22;51109;47.414;18.954;2022-12-29T08:27:48;1.40;99.90
64685;DHT22;51109;47.414;18.954;2022-12-29T08:30:15;1.30;99.90
64685;DHT22;51109;47.414;18.954;2022-12-29T08:32:41;1.40;99.90
64685;DHT22;51109;47.414;18.954;2022-12-29T08:35:08;1.40;99.90
64685;DHT22;51109;47.414;18.954;2022-12-29T08:37:34;1.30;99.90
64685;DHT22;51109;47.414;18.954;2022-12-29T08:40:00;1.30;99.90
64685;DHT22;51109;47.414;18.954;2022-12-29T08:42:32;1.40;99.90
64685;DHT22;51109;47.414;18.954;2022-12-29T08:45:01;1.50;99.90
64685;DHT22;51109;47.414;18.954;2022-12-29T08:47:27;1.50;99.90
64685;DHT22;51109;47.414;18.954;2022-12-29T08:49:53;1.50;99.90
64685;DHT22;51109;47.414;18.954;2022-12-29T08:52:19;1.60;99.90
64685;DHT22;51109;47.414;18.954;2022-12-29T08:54:45;1.60;99.90
64685;DHT22;51109;47.414;18.954;2022-12-29T08:57:11;1.60;99.90
64685;DHT22;51109;47.414;18.954;2022-12-29T08:59:36;1.60;99.90
64685;DHT22;51109;47.414;18.954;2022-12-29T09:02:03;1.70;99.90
64685;DHT22;51109;47.414;18.954;2022-12-29T09:04:28;1.70;99.90
64685;DHT22;51109;47.414;18.954;2022-12-29T09:06:54;1.70;99.90
64685;DHT22;51109;47.414;18.954;2022-12-29T09:09:21;1.80;99.90
64685;DHT22;51109;47.414;18.954;2022-12-29T09:11:46;1.80;99.90
64685;DHT22;51109;47.414;18.954;2022-12-29T09:14:13;1.90;99.90
64685;DHT22;51109;47.414;18.954;2022-12-29T09:16:39;2.10;99.90
64685;DHT22;51109;47.414;18.954;2022-12-29T09:19:05;2.00;99.90
64685;DHT22;51109;47.414;18.954;2022-12-29T09:21:31;2.20;99.90
64685;DHT22;51109;47.414;18.954;2022-12-29T09:23:57;2.20;99.90
64685;DHT22;51109;47.414;18.954;2022-12-29T09:26:22;2.20;99.90
64685;DHT22;51109;47.414;18.954;2022-12-29T09:28:48;2.10;99.90
64685;DHT22;51109;47.414;18.954;2022-12-29T09:31:14;2.10;99.90
64685;DHT22;51109;47.414;18.954;2022-12-29T09:33:40;2.10;99.90
64685;DHT22;51109;47.414;18.954;2022-12-29T09:36:06;2.00;99.90
64685;DHT22;51109;47.414;18.954;2022-12-29T09:38:32;2.00;99.90
64685;DHT22;51109;47.414;18.954;2022-12-29T09:41:06;1.90;99.90
64685;DHT22;51109;47.414;18.954;2022-12-29T09:46:49;1.80;99.90
64685;DHT22;51109;47.414;18.954;2022-12-29T09:49:20;1.80;99.90
64685;DHT22;51109;47.414;18.954;2022-12-29T09:51:50;1.90;99.90
64685;DHT22;51109;47.414;18.954;2022-12-29T09:54:45;1.90;99.90
64685;DHT22;51109;47.414;18.954;2022-12-29T09:57:26;2.00;99.90
64685;DHT22;51109;47.414;18.954;2022-12-29T09:59:58;2.10;99.90
64685;DHT22;51109;47.414;18.954;2022-12-29T10:02:38;2.20;99.90
64685;DHT22;51109;47.414;18.954;2022-12-29T10:05:26;2.20;99.90
64685;DHT22;51109;47.414;18.954;2022-12-29T10:16:39;2.20;99.90
64685;DHT22;51109;47.414;18.954;2022-12-29T10:19:16;2.20;99.90
64685;DHT22;51109;47.414;18.954;2022-12-29T10:24:55;2.20;99.90
64685;DHT22;51109;47.414;18.954;2022-12-29T10:27:24;2.30;99.90
64685;DHT22;51109;47.414;18.954;2022-12-29T10:29:55;2.50;99.90
64685;DHT22;51109;47.414;18.954;2022-12-29T10:32:50;2.60;99.90
64685;DHT22;51109;47.414;18.954;2022-12-29T10:35:22;2.70;99.90
64685;DHT22;51109;47.414;18.954;2022-12-29T10:38:15;2.90;99.90
64685;DHT22;51109;47.414;18.954;2022-12-29T10:40:58;3.10;99.90
64685;DHT22;51109;47.414;18.954;2022-12-29T10:43:33;3.20;99.90
64685;DHT22;51109;47.414;18.954;2022-12-29T10:46:05;3.40;99.90
64685;DHT22;51109;47.414;18.954;2022-12-29T10:48:34;3.60;99.90
64685;DHT22;51109;47.414;18.954;2022-12-29T10:51:05;3.60;99.90
64685;DHT22;51109;47.414;18.954;2022-12-29T10:53:45;3.60;99.90
64685;DHT22;51109;47.414;18.954;2022-12-29T10:58:51;3.80;99.90
64685;DHT22;51109;47.414;18.954;2022-12-29T11:01:20;3.80;99.90
64685;DHT22;51109;47.414;18.954;2022-12-29T11:06:38;4.10;99.90
64685;DHT22;51109;47.414;18.954;2022-12-29T11:09:15;4.10;99.90
64685;DHT22;51109;47.414;18.954;2022-12-29T11:11:44;4.20;99.90
64685;DHT22;51109;47.414;18.954;2022-12-29T11:14:18;4.30;99.90
64685;DHT22;51109;47.414;18.954;2022-12-29T11:17:03;4.30;99.90
64685;DHT22;51109;47.414;18.954;2022-12-29T11:19:32;4.40;99.90
64685;DHT22;51109;47.414;18.954;2022-12-29T11:24:45;4.40;99.90
64685;DHT22;51109;47.414;18.954;2022-12-29T11:27:23;4.30;99.90
64685;DHT22;51109;47.414;18.954;2022-12-29T11:29:51;4.30;99.90
64685;DHT22;51109;47.414;18.954;2022-12-29T11:32:20;4.20;99.90
64685;DHT22;51109;47.414;18.954;2022-12-29T11:34:46;4.40;99.90
64685;DHT22;51109;47.414;18.954;2022-12-29T11:37:14;4.50;99.90
64685;DHT22;51109;47.414;18.954;2022-12-29T11:39:51;4.50;99.90
64685;DHT22;51109;47.414;18.954;2022-12-29T11:42:23;4.50;99.90
64685;DHT22;51109;47.414;18.954;2022-12-29T11:44:55;4.50;99.90
64685;DHT22;51109;47.414;18.954;2022-12-29T11:47:26;4.50;99.90
64685;DHT22;51109;47.414;18.954;2022-12-29T11:49:55;4.40;99.90
64685;DHT22;51109;47.414;18.954;2022-12-29T11:52:24;4.40;99.90
64685;DHT22;51109;47.414;18.954;2022-12-29T11:54:52;4.50;99.90
64685;DHT22;51109;47.414;18.954;2022-12-29T11:57:19;4.70;99.90
64685;DHT22;51109;47.414;18.954;2022-12-29T11:59:54;4.80;99.90
64685;DHT22;51109;47.414;18.954;2022-12-29T12:05:45;5.00;99.90
64685;DHT22;51109;47.414;18.954;2022-12-29T12:10:58;5.00;99.90
64685;DHT22;51109;47.414;18.954;2022-12-29T12:13:40;4.80;99.90
64685;DHT22;51109;47.414;18.954;2022-12-29T12:16:22;4.90;99.90
64685;DHT22;51109;47.414;18.954;2022-12-29T12:19:06;5.00;99.90
64685;DHT22;51109;47.414;18.954;2022-12-29T12:21:39;5.00;99.90
64685;DHT22;51109;47.414;18.954;2022-12-29T12:24:51;5.00;99.90
64685;DHT22;51109;47.414;18.954;2022-12-29T12:26:59;4.60;99.90
64685;DHT22;51109;47.414;18.954;2022-12-29T12:35:51;4.50;99.90
64685;DHT22;51109;47.414;18.954;2022-12-29T12:43:37;4.70;99.90
64685;DHT22;51109;47.414;18.954;2022-12-29T12:57:22;4.60;99.90
64685;DHT22;51109;47.414;18.954;2022-12-29T13:00:23;4.70;99.90
64685;DHT22;51109;47.414;18.954;2022-12-29T13:10:59;4.70;99.90
64685;DHT22;51109;47.414;18.954;2022-12-29T13:18:46;4.70;99.90
64685;DHT22;51109;47.414;18.954;2022-12-29T13:26:38;4.70;99.90
64685;DHT22;51109;47.414;18.954;2022-12-29T13:29:38;4.60;99.90
64685;DHT22;51109;47.414;18.954;2022-12-29T13:32:18;4.60;99.90
64685;DHT22;51109;47.414;18.954;2022-12-29T13:38:08;4.60;99.90
64685;DHT22;51109;47.414;18.954;2022-12-29T13:40:40;4.60;99.90
64685;DHT22;51109;47.414;18.954;2022-12-29T13:43:08;4.50;99.90
64685;DHT22;51109;47.414;18.954;2022-12-29T13:45:35;4.50;99.90
64685;DHT22;51109;47.414;18.954;2022-12-29T13:48:22;4.40;99.90
64685;DHT22;51109;47.414;18.954;2022-12-29T13:50:53;4.30;99.90
64685;DHT22;51109;47.414;18.954;2022-12-29T13:56:35;4.50;99.90
64685;DHT22;51109;47.414;18.954;2022-12-29T14:01:46;4.40;99.90
64685;DHT22;51109;47.414;18.954;2022-12-29T14:04:26;4.40;99.90
64685;DHT22;51109;47.414;18.954;2022-12-29T14:07:11;4.30;99.90
64685;DHT22;51109;47.414;18.954;2022-12-29T14:14:48;4.30;99.90
64685;DHT22;51109;47.414;18.954;2022-12-29T14:17:19;4.30;99.90
64685;DHT22;51109;47.414;18.954;2022-12-29T14:19:46;4.30;99.90
64685;DHT22;51109;47.414;18.954;2022-12-29T14:22:23;4.20;99.90
64685;DHT22;51109;47.414;18.954;2022-12-29T14:24:50;4.20;99.90
64685;DHT22;51109;47.414;18.954;2022-12-29T14:29:47;4.00;99.90
64685;DHT22;51109;47.414;18.954;2022-12-29T14:34:55;3.80;99.90
64685;DHT22;51109;47.414;18.954;2022-12-29T14:37:33;3.90;99.90
64685;DHT22;51109;47.414;18.954;2022-12-29T14:40:25;3.80;99.90
64685;DHT22;51109;47.414;18.954;2022-12-29T14:42:54;3.80;99.90
64685;DHT22;51109;47.414;18.954;2022-12-29T14:47:48;3.60;99.90
64685;DHT22;51109;47.414;18.954;2022-12-29T14:52:57;3.40;99.90
64685;DHT22;51109;47.414;18.954;2022-12-29T14:55:44;3.30;99.90
64685;DHT22;51109;47.414;18.954;2022-12-29T14:58:19;3.20;99.90
64685;DHT22;51109;47.414;18.954;2022-12-29T15:00:47;3.10;99.90
64685;DHT22;51109;47.414;18.954;2022-12-29T15:03:22;3.00;99.90
64685;DHT22;51109;47.414;18.954;2022-12-29T15:05:57;3.00;99.90
64685;DHT22;51109;47.414;18.954;2022-12-29T15:08:31;3.00;99.90
64685;DHT22;51109;47.414;18.954;2022-12-29T15:11:21;2.90;99.90
64685;DHT22;51109;47.414;18.954;2022-12-29T15:13:48;2.90;99.90
64685;DHT22;51109;47.414;18.954;2022-12-29T15:16:29;2.90;99.90
64685;DHT22;51109;47.414;18.954;2022-12-29T15:18:55;2.90;99.90
64685;DHT22;51109;47.414;18.954;2022-12-29T15:21:32;2.80;99.90
64685;DHT22;51109;47.414;18.954;2022-12-29T15:23:59;2.80;99.90
64685;DHT22;51109;47.414;18.954;2022-12-29T15:26:44;2.70;99.90
64685;DHT22;51109;47.414;18.954;2022-12-29T15:29:31;2.60;99.90
64685;DHT22;51109;47.414;18.954;2022-12-29T15:32:01;2.60;99.90
64685;DHT22;51109;47.414;18.954;2022-12-29T15:34:30;2.60;99.90
64685;DHT22;51109;47.414;18.954;2022-12-29T15:36:56;2.60;99.90
64685;DHT22;51109;47.414;18.954;2022-12-29T15:39:30;2.60;99.90
64685;DHT22;51109;47.414;18.954;2022-12-29T15:42:02;2.10;99.90
64685;DHT22;51109;47.414;18.954;2022-12-29T15:44:41;2.50;99.90
64685;DHT22;51109;47.414;18.954;2022-12-29T15:47:18;2.40;99.90
64685;DHT22;51109;47.414;18.954;2022-12-29T15:49:47;2.40;99.90
64685;DHT22;51109;47.414;18.954;2022-12-29T15:52:21;2.40;99.90
64685;DHT22;51109;47.414;18.954;2022-12-29T15:54:50;2.30;99.90
64685;DHT22;51109;47.414;18.954;2022-12-29T15:57:29;2.30;99.90
64685;DHT22;51109;47.414;18.954;2022-12-29T15:59:56;2.20;99.90
64685;DHT22;51109;47.414;18.954;2022-12-29T16:02:23;2.20;99.90
64685;DHT22;51109;47.414;18.954;2022-12-29T16:04:50;2.10;99.90
64685;DHT22;51109;47.414;18.954;2022-12-29T16:07:28;2.10;99.90
64685;DHT22;51109;47.414;18.954;2022-12-29T16:09:59;2.10;99.90
64685;DHT22;51109;47.414;18.954;2022-12-29T16:12:35;2.00;99.90
64685;DHT22;51109;47.414;18.954;2022-12-29T16:15:03;2.10;99.90
64685;DHT22;51109;47.414;18.954;2022-12-29T16:17:37;2.00;99.90
64685;DHT22;51109;47.414;18.954;2022-12-29T16:20:25;1.90;99.90
64685;DHT22;51109;47.414;18.954;2022-12-29T16:22:58;1.90;99.90
64685;DHT22;51109;47.414;18.954;2022-12-29T16:25:43;1.90;99.90
64685;DHT22;51109;47.414;18.954;2022-12-29T16:28:22;1.90;99.90
64685;DHT22;51109;47.414;18.954;2022-12-29T16:31:05;1.80;99.90
64685;DHT22;51109;47.414;18.954;2022-12-29T16:33:52;1.80;99.90
64685;DHT22;51109;47.414;18.954;2022-12-29T16:36:33;1.80;99.90
64685;DHT22;51109;47.414;18.954;2022-12-29T16:39:30;1.70;99.90
64685;DHT22;51109;47.414;18.954;2022-12-29T16:41:57;1.70;99.90
64685;DHT22;51109;47.414;18.954;2022-12-29T16:44:26;1.70;99.90
64685;DHT22;51109;47.414;18.954;2022-12-29T16:49:39;1.60;99.90
64685;DHT22;51109;47.414;18.954;2022-12-29T16:52:17;1.60;99.90
64685;DHT22;51109;47.414;18.954;2022-12-29T16:54:53;1.60;99.90
64685;DHT22;51109;47.414;18.954;2022-12-29T16:57:28;1.50;99.90
64685;DHT22;51109;47.414;18.954;2022-12-29T17:00:01;1.00;99.90
64685;DHT22;51109;47.414;18.954;2022-12-29T17:02:30;1.50;99.90
64685;DHT22;51109;47.414;18.954;2022-12-29T17:04:57;1.50;99.90
64685;DHT22;51109;47.414;18.954;2022-12-29T17:07:25;1.40;99.90
64685;DHT22;51109;47.414;18.954;2022-12-29T17:09:52;1.40;99.90
64685;DHT22;51109;47.414;18.954;2022-12-29T17:12:24;1.30;99.90
64685;DHT22;51109;47.414;18.954;2022-12-29T17:15:09;1.30;99.90
64685;DHT22;51109;47.414;18.954;2022-12-29T17:17:39;1.30;99.90
64685;DHT22;51109;47.414;18.954;2022-12-29T17:20:16;1.30;99.90
64685;DHT22;51109;47.414;18.954;2022-12-29T17:22:43;1.30;99.90
64685;DHT22;51109;47.414;18.954;2022-12-29T17:25:14;1.30;99.90
64685;DHT22;51109;47.414;18.954;2022-12-29T17:27:55;1.30;99.90
64685;DHT22;51109;47.414;18.954;2022-12-29T17:30:25;1.30;99.90
64685;DHT22;51109;47.414;18.954;2022-12-29T17:33:03;1.30;99.90
64685;DHT22;51109;47.414;18.954;2022-12-29T17:35:30;1.30;99.90
64685;DHT22;51109;47.414;18.954;2022-12-29T17:37:56;1.30;99.90
64685;DHT22;51109;47.414;18.954;2022-12-29T17:40:26;1.30;99.90
64685;DHT22;51109;47.414;18.954;2022-12-29T17:42:54;1.30;99.90
64685;DHT22;51109;47.414;18.954;2022-12-29T17:45:23;1.30;99.90
64685;DHT22;51109;47.414;18.954;2022-12-29T17:47:50;1.30;99.90
64685;DHT22;51109;47.414;18.954;2022-12-29T17:50:19;1.40;99.90
64685;DHT22;51109;47.414;18.954;2022-12-29T17:52:50;1.40;99.90
64685;DHT22;51109;47.414;18.954;2022-12-29T17:55:19;1.40;99.90
64685;DHT22;51109;47.414;18.954;2022-12-29T17:57:46;1.30;99.90
64685;DHT22;51109;47.414;18.954;2022-12-29T18:00:23;1.30;99.90
64685;DHT22;51109;47.414;18.954;2022-12-29T18:02:52;1.30;99.90
64685;DHT22;51109;47.414;18.954;2022-12-29T18:05:21;0.80;99.90
64685;DHT22;51109;47.414;18.954;2022-12-29T18:07:50;1.30;99.90
64685;DHT22;51109;47.414;18.954;2022-12-29T18:10:16;1.30;99.90